Aérodrome :
LOGIN :

S'inscrire | Disclaimer

   EN    FR    IT 

 










Légende :    VFR   VFR Marginal   IFR   IFR Intensif   IFR Très Intensif
Visi : 
Plafond : 
>= 8 km
>= 3000ft
5 à 8 km
1000 à 3000 ft
1500m à 5 km
500 à 1000 ft
800 à 1500m
200 à 500 ft
< 800m
< 200 ft
Symboles :   Orages  Brouillard  Fortes neiges  Fortes précipitations  Vent > 20 kt
SIGMETs :   Divers  Orages  Givrage  Turbulence  Onde Orograph.  Cendres Volcan.







- Altitude de l'aérodrome : 359 ft
- Code IATA : BVA
- Voir les cartes d'approche


LFOB - Beauvais

DERNIER METAR :
  • 181400Z AUTO 22009KT 9999 FEW049 BKN230 25/13 Q1015 NOSIG

METARs EXPIRÉS :
  • 181330Z AUTO 23010KT 200V260 9999 FEW046 25/13 Q1015 NOSIG
  • 181300Z AUTO 23012KT 190V260 9999 FEW041 25/14 Q1015 NOSIG
  • 181230Z AUTO 21011KT 180V250 9999 SCT038 SCT100 25/14 Q1015 NOSIG
  • 181200Z AUTO 22012KT 9999 SCT035 SCT100 BKN190 25/14 Q1015 NOSIG
  • 181130Z AUTO 21012KT 9999 FEW031 SCT130 24/15 Q1015 NOSIG

TAF TAF LFOB
Valide du 18 à 12h jusqu'au 19 à 12h UTC


181100Z 1812/1912 24012KT 9999 SCT035
BECMG 1817/1820 16005KT
BECMG 1903/1906 23012KT
TEMPO 1906/1909 BKN010
ATIS : +33 3 44 11 49 28
Pas de NOTAMs connus pour ce terrain.
1 SIGMET publié pour la FIR Paris (LFFF) :
 
Orages noyés dans la masse
LFFF SIGMET 1 VALID 181330/181500 LFPW
LFFF PARIS FIR/UIR EMBD TS OBS WI N4800 E00145 - N4800 E00115 - N4915 E00300 - N4845 E00300 - N4800 E00145 TOP FL320 MOV NE 20KT NC=



MET'MAP, la Météo Aéronautique d'un coup d'oeil ! - Copyright ORBIFLY Décembre 2007 - Disclaimer

ORBIFLY MET'MAP TEAM :

Programmation & Développement : Alexandra Zaïnal
Conception & Développement : Baudouin d'Aumeries
Co-Programmation & Développement : Marc-Olivier Méhu
Soutien technique & logistique : Manuel Goepfert

Contact : metmap@orbifly.com




SOURCES & CREDITS :

   NOAA